sensor_id;sensor_type;location;lat;lon;timestamp;P1;durP1;ratioP1;P2;durP2;ratioP2
59685;SDS011;45554;51.096;16.976;2023-07-24T00:00:38;5.20;;;2.90;;
59685;SDS011;45554;51.096;16.976;2023-07-24T00:03:28;7.40;;;3.40;;
59685;SDS011;45554;51.096;16.976;2023-07-24T00:05:59;8.10;;;3.30;;
59685;SDS011;45554;51.096;16.976;2023-07-24T00:08:27;7.80;;;3.10;;
59685;SDS011;45554;51.096;16.976;2023-07-24T00:10:55;6.30;;;2.90;;
59685;SDS011;45554;51.096;16.976;2023-07-24T00:13:23;8.90;;;3.30;;
59685;SDS011;45554;51.096;16.976;2023-07-24T00:15:51;7.80;;;2.90;;
59685;SDS011;45554;51.096;16.976;2023-07-24T00:18:19;7.00;;;3.50;;
59685;SDS011;45554;51.096;16.976;2023-07-24T00:20:47;6.00;;;3.20;;
59685;SDS011;45554;51.096;16.976;2023-07-24T00:23:15;7.90;;;3.40;;
59685;SDS011;45554;51.096;16.976;2023-07-24T00:25:43;7.00;;;3.20;;
59685;SDS011;45554;51.096;16.976;2023-07-24T00:28:11;7.00;;;3.20;;
59685;SDS011;45554;51.096;16.976;2023-07-24T00:30:39;6.60;;;2.90;;
59685;SDS011;45554;51.096;16.976;2023-07-24T00:33:08;6.80;;;3.30;;
59685;SDS011;45554;51.096;16.976;2023-07-24T00:35:36;6.80;;;3.20;;
59685;SDS011;45554;51.096;16.976;2023-07-24T00:38:04;8.10;;;3.60;;
59685;SDS011;45554;51.096;16.976;2023-07-24T00:40:32;7.60;;;3.00;;
59685;SDS011;45554;51.096;16.976;2023-07-24T00:43:00;6.80;;;2.90;;
59685;SDS011;45554;51.096;16.976;2023-07-24T00:45:28;6.30;;;3.00;;
59685;SDS011;45554;51.096;16.976;2023-07-24T00:47:58;6.00;;;2.90;;
59685;SDS011;45554;51.096;16.976;2023-07-24T00:50:27;8.60;;;3.60;;
59685;SDS011;45554;51.096;16.976;2023-07-24T00:52:56;8.00;;;3.40;;
59685;SDS011;45554;51.096;16.976;2023-07-24T00:57:53;7.90;;;3.10;;
59685;SDS011;45554;51.096;16.976;2023-07-24T01:00:22;5.50;;;2.70;;
59685;SDS011;45554;51.096;16.976;2023-07-24T01:02:50;8.10;;;3.30;;
59685;SDS011;45554;51.096;16.976;2023-07-24T01:05:19;10.30;;;3.30;;
59685;SDS011;45554;51.096;16.976;2023-07-24T01:07:48;9.40;;;3.10;;
59685;SDS011;45554;51.096;16.976;2023-07-24T01:10:16;8.60;;;3.30;;
59685;SDS011;45554;51.096;16.976;2023-07-24T01:15:50;10.90;;;3.50;;
59685;SDS011;45554;51.096;16.976;2023-07-24T01:18:26;8.80;;;3.40;;
59685;SDS011;45554;51.096;16.976;2023-07-24T01:20:57;10.00;;;3.60;;
59685;SDS011;45554;51.096;16.976;2023-07-24T01:26:18;8.40;;;3.30;;
59685;SDS011;45554;51.096;16.976;2023-07-24T01:28:46;5.30;;;2.80;;
59685;SDS011;45554;51.096;16.976;2023-07-24T01:31:15;8.70;;;3.50;;
59685;SDS011;45554;51.096;16.976;2023-07-24T01:33:44;7.90;;;3.30;;
59685;SDS011;45554;51.096;16.976;2023-07-24T01:36:18;8.00;;;2.90;;
59685;SDS011;45554;51.096;16.976;2023-07-24T01:38:47;8.90;;;3.30;;
59685;SDS011;45554;51.096;16.976;2023-07-24T01:41:19;10.50;;;3.50;;
59685;SDS011;45554;51.096;16.976;2023-07-24T01:43:48;7.50;;;3.00;;
59685;SDS011;45554;51.096;16.976;2023-07-24T01:46:16;7.60;;;3.10;;
59685;SDS011;45554;51.096;16.976;2023-07-24T01:48:44;9.60;;;3.10;;
59685;SDS011;45554;51.096;16.976;2023-07-24T01:51:14;8.10;;;3.10;;
59685;SDS011;45554;51.096;16.976;2023-07-24T01:53:42;9.20;;;3.50;;
59685;SDS011;45554;51.096;16.976;2023-07-24T01:56:10;9.40;;;3.40;;
59685;SDS011;45554;51.096;16.976;2023-07-24T01:58:38;11.30;;;3.00;;
59685;SDS011;45554;51.096;16.976;2023-07-24T02:01:06;9.10;;;3.30;;
59685;SDS011;45554;51.096;16.976;2023-07-24T02:03:34;9.10;;;3.30;;
59685;SDS011;45554;51.096;16.976;2023-07-24T02:06:04;9.90;;;3.30;;
59685;SDS011;45554;51.096;16.976;2023-07-24T02:08:32;9.50;;;3.40;;
59685;SDS011;45554;51.096;16.976;2023-07-24T02:11:00;8.70;;;3.50;;
59685;SDS011;45554;51.096;16.976;2023-07-24T02:13:28;7.00;;;3.10;;
59685;SDS011;45554;51.096;16.976;2023-07-24T02:15:56;10.30;;;3.20;;
59685;SDS011;45554;51.096;16.976;2023-07-24T02:18:24;8.80;;;3.20;;
59685;SDS011;45554;51.096;16.976;2023-07-24T02:20:52;8.40;;;3.70;;
59685;SDS011;45554;51.096;16.976;2023-07-24T02:23:21;9.90;;;3.10;;
59685;SDS011;45554;51.096;16.976;2023-07-24T02:25:52;9.20;;;3.30;;
59685;SDS011;45554;51.096;16.976;2023-07-24T02:28:20;9.20;;;3.00;;
59685;SDS011;45554;51.096;16.976;2023-07-24T02:30:48;6.40;;;3.20;;
59685;SDS011;45554;51.096;16.976;2023-07-24T02:33:18;7.00;;;3.00;;
59685;SDS011;45554;51.096;16.976;2023-07-24T02:35:46;12.10;;;2.90;;
59685;SDS011;45554;51.096;16.976;2023-07-24T02:38:14;9.60;;;3.30;;
59685;SDS011;45554;51.096;16.976;2023-07-24T02:40:43;8.60;;;2.90;;
59685;SDS011;45554;51.096;16.976;2023-07-24T02:43:12;11.20;;;3.30;;
59685;SDS011;45554;51.096;16.976;2023-07-24T02:45:40;7.20;;;3.20;;
59685;SDS011;45554;51.096;16.976;2023-07-24T02:48:08;7.20;;;3.20;;
59685;SDS011;45554;51.096;16.976;2023-07-24T02:50:37;8.70;;;3.30;;
59685;SDS011;45554;51.096;16.976;2023-07-24T02:53:05;8.60;;;3.40;;
59685;SDS011;45554;51.096;16.976;2023-07-24T02:55:33;7.30;;;2.80;;
59685;SDS011;45554;51.096;16.976;2023-07-24T02:58:01;7.80;;;3.20;;
59685;SDS011;45554;51.096;16.976;2023-07-24T03:00:29;7.50;;;3.20;;
59685;SDS011;45554;51.096;16.976;2023-07-24T03:02:59;8.90;;;3.60;;
59685;SDS011;45554;51.096;16.976;2023-07-24T03:05:27;10.50;;;3.30;;
59685;SDS011;45554;51.096;16.976;2023-07-24T03:07:58;9.60;;;3.10;;
59685;SDS011;45554;51.096;16.976;2023-07-24T03:10:25;11.10;;;3.30;;
59685;SDS011;45554;51.096;16.976;2023-07-24T03:12:54;6.30;;;3.20;;
59685;SDS011;45554;51.096;16.976;2023-07-24T03:15:22;7.90;;;3.30;;
59685;SDS011;45554;51.096;16.976;2023-07-24T03:17:50;9.00;;;3.40;;
59685;SDS011;45554;51.096;16.976;2023-07-24T03:20:18;8.70;;;3.30;;
59685;SDS011;45554;51.096;16.976;2023-07-24T03:22:47;7.30;;;2.90;;
59685;SDS011;45554;51.096;16.976;2023-07-24T03:25:15;6.20;;;3.00;;
59685;SDS011;45554;51.096;16.976;2023-07-24T03:27:43;8.50;;;3.40;;
59685;SDS011;45554;51.096;16.976;2023-07-24T03:30:11;7.10;;;3.60;;
59685;SDS011;45554;51.096;16.976;2023-07-24T03:32:39;6.20;;;3.10;;
59685;SDS011;45554;51.096;16.976;2023-07-24T03:35:07;7.60;;;3.10;;
59685;SDS011;45554;51.096;16.976;2023-07-24T03:37:36;8.30;;;3.40;;
59685;SDS011;45554;51.096;16.976;2023-07-24T03:40:04;7.40;;;3.70;;
59685;SDS011;45554;51.096;16.976;2023-07-24T03:42:33;9.60;;;3.30;;
59685;SDS011;45554;51.096;16.976;2023-07-24T03:45:01;8.70;;;3.50;;
59685;SDS011;45554;51.096;16.976;2023-07-24T03:47:29;6.80;;;3.50;;
59685;SDS011;45554;51.096;16.976;2023-07-24T03:49:58;8.60;;;3.10;;
59685;SDS011;45554;51.096;16.976;2023-07-24T03:52:26;6.60;;;3.20;;
59685;SDS011;45554;51.096;16.976;2023-07-24T03:54:54;7.90;;;3.00;;
59685;SDS011;45554;51.096;16.976;2023-07-24T03:57:22;8.90;;;3.20;;
59685;SDS011;45554;51.096;16.976;2023-07-24T03:59:50;6.80;;;3.10;;
59685;SDS011;45554;51.096;16.976;2023-07-24T04:02:18;8.50;;;3.40;;
59685;SDS011;45554;51.096;16.976;2023-07-24T04:04:47;7.40;;;3.40;;
59685;SDS011;45554;51.096;16.976;2023-07-24T04:07:15;5.90;;;2.80;;
59685;SDS011;45554;51.096;16.976;2023-07-24T04:09:43;8.10;;;3.00;;
59685;SDS011;45554;51.096;16.976;2023-07-24T04:12:11;6.70;;;3.40;;
59685;SDS011;45554;51.096;16.976;2023-07-24T04:14:39;7.30;;;3.30;;
59685;SDS011;45554;51.096;16.976;2023-07-24T04:17:07;8.20;;;3.50;;
59685;SDS011;45554;51.096;16.976;2023-07-24T04:19:36;8.40;;;3.70;;
59685;SDS011;45554;51.096;16.976;2023-07-24T04:22:04;7.30;;;3.70;;
59685;SDS011;45554;51.096;16.976;2023-07-24T04:24:34;6.60;;;3.40;;
59685;SDS011;45554;51.096;16.976;2023-07-24T04:27:02;8.30;;;4.10;;
59685;SDS011;45554;51.096;16.976;2023-07-24T04:29:31;6.40;;;2.80;;
59685;SDS011;45554;51.096;16.976;2023-07-24T04:31:58;7.90;;;3.50;;
59685;SDS011;45554;51.096;16.976;2023-07-24T04:34:26;7.10;;;3.50;;
59685;SDS011;45554;51.096;16.976;2023-07-24T04:36:54;8.20;;;3.40;;
59685;SDS011;45554;51.096;16.976;2023-07-24T04:39:22;7.40;;;3.10;;
59685;SDS011;45554;51.096;16.976;2023-07-24T04:41:50;7.70;;;3.70;;
59685;SDS011;45554;51.096;16.976;2023-07-24T04:44:18;8.00;;;3.40;;
59685;SDS011;45554;51.096;16.976;2023-07-24T04:46:46;7.20;;;3.60;;
59685;SDS011;45554;51.096;16.976;2023-07-24T04:49:14;7.90;;;3.20;;
59685;SDS011;45554;51.096;16.976;2023-07-24T04:51:42;7.50;;;3.40;;
59685;SDS011;45554;51.096;16.976;2023-07-24T04:54:10;7.90;;;3.50;;
59685;SDS011;45554;51.096;16.976;2023-07-24T04:56:38;5.80;;;3.10;;
59685;SDS011;45554;51.096;16.976;2023-07-24T04:59:07;7.70;;;3.10;;
59685;SDS011;45554;51.096;16.976;2023-07-24T05:01:34;7.60;;;3.00;;
59685;SDS011;45554;51.096;16.976;2023-07-24T05:04:03;6.50;;;3.60;;
59685;SDS011;45554;51.096;16.976;2023-07-24T05:06:31;6.90;;;3.50;;
59685;SDS011;45554;51.096;16.976;2023-07-24T05:08:59;7.20;;;3.50;;
59685;SDS011;45554;51.096;16.976;2023-07-24T05:11:28;9.90;;;3.90;;
59685;SDS011;45554;51.096;16.976;2023-07-24T05:13:56;7.20;;;3.50;;
59685;SDS011;45554;51.096;16.976;2023-07-24T05:16:24;7.30;;;3.60;;
59685;SDS011;45554;51.096;16.976;2023-07-24T05:18:52;7.70;;;3.90;;
59685;SDS011;45554;51.096;16.976;2023-07-24T05:21:20;8.30;;;3.80;;
59685;SDS011;45554;51.096;16.976;2023-07-24T05:23:48;7.80;;;3.60;;
59685;SDS011;45554;51.096;16.976;2023-07-24T05:26:18;6.90;;;3.70;;
59685;SDS011;45554;51.096;16.976;2023-07-24T05:28:46;9.00;;;3.90;;
59685;SDS011;45554;51.096;16.976;2023-07-24T05:31:14;9.30;;;4.40;;
59685;SDS011;45554;51.096;16.976;2023-07-24T05:33:42;9.80;;;3.90;;
59685;SDS011;45554;51.096;16.976;2023-07-24T05:36:10;8.00;;;3.70;;
59685;SDS011;45554;51.096;16.976;2023-07-24T05:38:38;7.20;;;3.30;;
59685;SDS011;45554;51.096;16.976;2023-07-24T05:41:06;7.30;;;3.90;;
59685;SDS011;45554;51.096;16.976;2023-07-24T05:43:35;6.70;;;3.60;;
59685;SDS011;45554;51.096;16.976;2023-07-24T05:46:02;6.20;;;3.20;;
59685;SDS011;45554;51.096;16.976;2023-07-24T05:48:31;6.90;;;3.60;;
59685;SDS011;45554;51.096;16.976;2023-07-24T05:50:59;7.10;;;3.10;;
59685;SDS011;45554;51.096;16.976;2023-07-24T05:53:27;6.70;;;3.50;;
59685;SDS011;45554;51.096;16.976;2023-07-24T05:58:28;6.90;;;3.70;;
59685;SDS011;45554;51.096;16.976;2023-07-24T06:00:56;9.70;;;3.70;;
59685;SDS011;45554;51.096;16.976;2023-07-24T06:03:24;6.90;;;4.00;;
59685;SDS011;45554;51.096;16.976;2023-07-24T06:08:21;7.10;;;3.50;;
59685;SDS011;45554;51.096;16.976;2023-07-24T06:10:50;7.70;;;3.50;;
59685;SDS011;45554;51.096;16.976;2023-07-24T06:13:19;7.10;;;3.50;;
59685;SDS011;45554;51.096;16.976;2023-07-24T06:18:16;7.40;;;3.60;;
59685;SDS011;45554;51.096;16.976;2023-07-24T06:20:44;7.10;;;3.80;;
59685;SDS011;45554;51.096;16.976;2023-07-24T06:23:12;7.90;;;4.10;;
59685;SDS011;45554;51.096;16.976;2023-07-24T06:25:40;9.10;;;3.50;;
59685;SDS011;45554;51.096;16.976;2023-07-24T06:28:08;7.30;;;3.80;;
59685;SDS011;45554;51.096;16.976;2023-07-24T06:30:38;8.00;;;3.80;;
59685;SDS011;45554;51.096;16.976;2023-07-24T06:33:06;9.20;;;3.80;;
59685;SDS011;45554;51.096;16.976;2023-07-24T06:35:34;7.10;;;3.90;;
59685;SDS011;45554;51.096;16.976;2023-07-24T06:38:03;11.00;;;4.10;;
59685;SDS011;45554;51.096;16.976;2023-07-24T06:40:31;7.30;;;3.70;;
59685;SDS011;45554;51.096;16.976;2023-07-24T06:42:58;8.60;;;3.50;;
59685;SDS011;45554;51.096;16.976;2023-07-24T06:47:55;9.30;;;4.00;;
59685;SDS011;45554;51.096;16.976;2023-07-24T06:50:23;8.20;;;4.10;;
59685;SDS011;45554;51.096;16.976;2023-07-24T06:52:51;7.30;;;3.80;;
59685;SDS011;45554;51.096;16.976;2023-07-24T06:55:21;7.00;;;3.50;;
59685;SDS011;45554;51.096;16.976;2023-07-24T06:57:51;6.10;;;3.30;;
59685;SDS011;45554;51.096;16.976;2023-07-24T07:00:18;7.60;;;3.60;;
59685;SDS011;45554;51.096;16.976;2023-07-24T07:02:47;7.10;;;3.70;;
59685;SDS011;45554;51.096;16.976;2023-07-24T07:05:15;7.30;;;3.80;;
59685;SDS011;45554;51.096;16.976;2023-07-24T07:07:43;8.80;;;3.70;;
59685;SDS011;45554;51.096;16.976;2023-07-24T07:10:11;8.20;;;3.90;;
59685;SDS011;45554;51.096;16.976;2023-07-24T07:12:39;8.40;;;4.00;;
59685;SDS011;45554;51.096;16.976;2023-07-24T07:15:07;7.30;;;3.40;;
59685;SDS011;45554;51.096;16.976;2023-07-24T07:17:35;9.50;;;3.40;;
59685;SDS011;45554;51.096;16.976;2023-07-24T07:22:32;8.70;;;3.60;;
59685;SDS011;45554;51.096;16.976;2023-07-24T07:25:00;8.00;;;3.60;;
59685;SDS011;45554;51.096;16.976;2023-07-24T07:27:28;8.80;;;3.80;;
59685;SDS011;45554;51.096;16.976;2023-07-24T07:29:56;9.20;;;3.80;;
59685;SDS011;45554;51.096;16.976;2023-07-24T07:32:24;7.40;;;3.60;;
59685;SDS011;45554;51.096;16.976;2023-07-24T07:34:52;6.60;;;3.60;;
59685;SDS011;45554;51.096;16.976;2023-07-24T07:37:20;8.10;;;4.00;;
59685;SDS011;45554;51.096;16.976;2023-07-24T07:39:48;7.60;;;3.60;;
59685;SDS011;45554;51.096;16.976;2023-07-24T07:42:19;7.20;;;3.80;;
59685;SDS011;45554;51.096;16.976;2023-07-24T07:44:47;7.90;;;3.40;;
59685;SDS011;45554;51.096;16.976;2023-07-24T07:47:15;7.70;;;4.00;;
59685;SDS011;45554;51.096;16.976;2023-07-24T07:49:44;9.90;;;4.00;;
59685;SDS011;45554;51.096;16.976;2023-07-24T07:52:12;8.00;;;4.10;;
59685;SDS011;45554;51.096;16.976;2023-07-24T07:54:45;8.00;;;4.10;;
59685;SDS011;45554;51.096;16.976;2023-07-24T07:57:14;9.30;;;4.20;;
59685;SDS011;45554;51.096;16.976;2023-07-24T07:59:45;8.00;;;4.70;;
59685;SDS011;45554;51.096;16.976;2023-07-24T08:02:13;7.50;;;3.80;;
59685;SDS011;45554;51.096;16.976;2023-07-24T08:04:41;7.90;;;4.30;;
59685;SDS011;45554;51.096;16.976;2023-07-24T08:07:10;8.20;;;4.50;;
59685;SDS011;45554;51.096;16.976;2023-07-24T08:09:38;7.80;;;4.10;;
59685;SDS011;45554;51.096;16.976;2023-07-24T08:12:06;9.20;;;4.50;;
59685;SDS011;45554;51.096;16.976;2023-07-24T08:14:35;11.10;;;4.60;;
59685;SDS011;45554;51.096;16.976;2023-07-24T08:17:04;11.30;;;4.60;;
59685;SDS011;45554;51.096;16.976;2023-07-24T08:22:00;12.10;;;5.10;;
59685;SDS011;45554;51.096;16.976;2023-07-24T08:24:29;8.10;;;4.60;;
59685;SDS011;45554;51.096;16.976;2023-07-24T08:26:57;8.60;;;4.50;;
59685;SDS011;45554;51.096;16.976;2023-07-24T08:29:25;7.70;;;4.00;;
59685;SDS011;45554;51.096;16.976;2023-07-24T08:31:53;10.30;;;4.70;;
59685;SDS011;45554;51.096;16.976;2023-07-24T08:34:24;10.60;;;5.00;;
59685;SDS011;45554;51.096;16.976;2023-07-24T08:36:52;9.10;;;4.80;;
59685;SDS011;45554;51.096;16.976;2023-07-24T08:39:21;8.10;;;4.60;;
59685;SDS011;45554;51.096;16.976;2023-07-24T08:41:49;11.20;;;4.60;;
59685;SDS011;45554;51.096;16.976;2023-07-24T08:44:21;10.60;;;4.70;;
59685;SDS011;45554;51.096;16.976;2023-07-24T08:47:00;7.10;;;4.10;;
59685;SDS011;45554;51.096;16.976;2023-07-24T08:49:31;8.00;;;4.30;;
59685;SDS011;45554;51.096;16.976;2023-07-24T08:52:00;9.50;;;4.20;;
59685;SDS011;45554;51.096;16.976;2023-07-24T08:54:29;11.30;;;4.30;;
59685;SDS011;45554;51.096;16.976;2023-07-24T08:56:58;10.10;;;4.40;;
59685;SDS011;45554;51.096;16.976;2023-07-24T08:59:27;7.90;;;4.20;;
59685;SDS011;45554;51.096;16.976;2023-07-24T09:01:56;7.60;;;4.00;;
59685;SDS011;45554;51.096;16.976;2023-07-24T09:04:24;9.20;;;4.70;;
59685;SDS011;45554;51.096;16.976;2023-07-24T09:09:20;9.10;;;4.60;;
59685;SDS011;45554;51.096;16.976;2023-07-24T09:11:52;9.60;;;4.30;;
59685;SDS011;45554;51.096;16.976;2023-07-24T09:14:22;9.40;;;4.90;;
59685;SDS011;45554;51.096;16.976;2023-07-24T09:17:05;7.90;;;4.40;;
59685;SDS011;45554;51.096;16.976;2023-07-24T09:19:40;8.90;;;4.40;;
59685;SDS011;45554;51.096;16.976;2023-07-24T09:22:12;7.40;;;4.60;;
59685;SDS011;45554;51.096;16.976;2023-07-24T09:24:53;7.50;;;4.40;;
59685;SDS011;45554;51.096;16.976;2023-07-24T09:27:27;7.00;;;4.50;;
59685;SDS011;45554;51.096;16.976;2023-07-24T09:29:58;8.70;;;4.20;;
59685;SDS011;45554;51.096;16.976;2023-07-24T09:32:27;7.10;;;4.40;;
59685;SDS011;45554;51.096;16.976;2023-07-24T09:34:56;7.80;;;4.30;;
59685;SDS011;45554;51.096;16.976;2023-07-24T09:39:57;7.10;;;4.30;;
59685;SDS011;45554;51.096;16.976;2023-07-24T09:42:34;8.10;;;4.80;;
59685;SDS011;45554;51.096;16.976;2023-07-24T09:45:19;10.90;;;4.50;;
59685;SDS011;45554;51.096;16.976;2023-07-24T09:47:54;10.00;;;4.20;;
59685;SDS011;45554;51.096;16.976;2023-07-24T09:50:37;7.90;;;4.20;;
59685;SDS011;45554;51.096;16.976;2023-07-24T09:53:33;8.70;;;4.70;;
59685;SDS011;45554;51.096;16.976;2023-07-24T09:56:05;8.10;;;4.30;;
59685;SDS011;45554;51.096;16.976;2023-07-24T09:58:37;9.30;;;4.80;;
59685;SDS011;45554;51.096;16.976;2023-07-24T10:01:07;9.00;;;5.10;;
59685;SDS011;45554;51.096;16.976;2023-07-24T10:03:40;10.40;;;5.00;;
59685;SDS011;45554;51.096;16.976;2023-07-24T10:06:14;8.00;;;4.80;;
59685;SDS011;45554;51.096;16.976;2023-07-24T10:08:44;9.40;;;5.00;;
59685;SDS011;45554;51.096;16.976;2023-07-24T10:11:13;7.80;;;4.50;;
59685;SDS011;45554;51.096;16.976;2023-07-24T10:13:42;8.40;;;4.70;;
59685;SDS011;45554;51.096;16.976;2023-07-24T10:16:11;8.70;;;4.20;;
59685;SDS011;45554;51.096;16.976;2023-07-24T10:18:43;9.00;;;4.50;;
59685;SDS011;45554;51.096;16.976;2023-07-24T10:21:17;7.60;;;4.80;;
59685;SDS011;45554;51.096;16.976;2023-07-24T10:23:48;9.30;;;4.80;;
59685;SDS011;45554;51.096;16.976;2023-07-24T10:26:16;13.00;;;4.70;;
59685;SDS011;45554;51.096;16.976;2023-07-24T10:28:52;8.10;;;4.70;;
59685;SDS011;45554;51.096;16.976;2023-07-24T10:31:23;10.70;;;4.50;;
59685;SDS011;45554;51.096;16.976;2023-07-24T10:33:55;9.70;;;5.00;;
59685;SDS011;45554;51.096;16.976;2023-07-24T10:36:35;9.00;;;4.70;;
59685;SDS011;45554;51.096;16.976;2023-07-24T10:39:12;7.80;;;4.60;;
59685;SDS011;45554;51.096;16.976;2023-07-24T10:41:45;7.50;;;4.30;;
59685;SDS011;45554;51.096;16.976;2023-07-24T10:44:16;8.40;;;4.50;;
59685;SDS011;45554;51.096;16.976;2023-07-24T10:46:45;8.40;;;4.60;;
59685;SDS011;45554;51.096;16.976;2023-07-24T10:49:14;9.30;;;4.90;;
59685;SDS011;45554;51.096;16.976;2023-07-24T10:51:54;7.80;;;4.60;;
59685;SDS011;45554;51.096;16.976;2023-07-24T10:54:23;7.70;;;4.40;;
59685;SDS011;45554;51.096;16.976;2023-07-24T10:56:58;9.50;;;4.90;;
59685;SDS011;45554;51.096;16.976;2023-07-24T10:59:37;8.00;;;4.40;;
59685;SDS011;45554;51.096;16.976;2023-07-24T11:02:06;8.10;;;4.80;;
59685;SDS011;45554;51.096;16.976;2023-07-24T11:04:41;8.90;;;4.80;;
59685;SDS011;45554;51.096;16.976;2023-07-24T11:07:09;8.60;;;4.40;;
59685;SDS011;45554;51.096;16.976;2023-07-24T11:09:38;9.00;;;4.70;;
59685;SDS011;45554;51.096;16.976;2023-07-24T11:12:15;8.80;;;4.70;;
59685;SDS011;45554;51.096;16.976;2023-07-24T11:14:48;6.80;;;4.40;;
59685;SDS011;45554;51.096;16.976;2023-07-24T11:17:32;8.30;;;4.30;;
59685;SDS011;45554;51.096;16.976;2023-07-24T11:22:42;8.30;;;5.10;;
59685;SDS011;45554;51.096;16.976;2023-07-24T11:25:11;10.70;;;5.10;;
59685;SDS011;45554;51.096;16.976;2023-07-24T11:30:12;8.90;;;4.80;;
59685;SDS011;45554;51.096;16.976;2023-07-24T11:32:46;8.10;;;4.30;;
59685;SDS011;45554;51.096;16.976;2023-07-24T11:35:16;7.60;;;4.60;;
59685;SDS011;45554;51.096;16.976;2023-07-24T11:37:44;8.80;;;4.50;;
59685;SDS011;45554;51.096;16.976;2023-07-24T11:40:12;8.10;;;4.80;;
59685;SDS011;45554;51.096;16.976;2023-07-24T11:42:43;11.10;;;4.40;;
59685;SDS011;45554;51.096;16.976;2023-07-24T11:45:12;8.10;;;4.80;;
59685;SDS011;45554;51.096;16.976;2023-07-24T11:50:13;8.80;;;4.60;;
59685;SDS011;45554;51.096;16.976;2023-07-24T11:52:43;7.80;;;4.60;;
59685;SDS011;45554;51.096;16.976;2023-07-24T11:55:13;9.40;;;5.10;;
59685;SDS011;45554;51.096;16.976;2023-07-24T11:57:55;9.50;;;5.50;;
59685;SDS011;45554;51.096;16.976;2023-07-24T12:00:27;8.40;;;5.00;;
59685;SDS011;45554;51.096;16.976;2023-07-24T12:02:59;10.20;;;5.30;;
59685;SDS011;45554;51.096;16.976;2023-07-24T12:05:28;7.80;;;5.10;;
59685;SDS011;45554;51.096;16.976;2023-07-24T12:07:57;10.30;;;6.00;;
59685;SDS011;45554;51.096;16.976;2023-07-24T12:10:31;8.60;;;5.00;;
59685;SDS011;45554;51.096;16.976;2023-07-24T12:12:59;10.00;;;5.40;;
59685;SDS011;45554;51.096;16.976;2023-07-24T12:17:56;8.70;;;5.50;;
59685;SDS011;45554;51.096;16.976;2023-07-24T12:20:28;11.20;;;5.70;;
59685;SDS011;45554;51.096;16.976;2023-07-24T12:22:56;11.00;;;5.80;;
59685;SDS011;45554;51.096;16.976;2023-07-24T12:25:25;10.60;;;6.60;;
59685;SDS011;45554;51.096;16.976;2023-07-24T12:27:53;8.30;;;5.50;;
59685;SDS011;45554;51.096;16.976;2023-07-24T12:30:22;12.10;;;6.40;;
59685;SDS011;45554;51.096;16.976;2023-07-24T12:32:50;10.80;;;6.40;;
59685;SDS011;45554;51.096;16.976;2023-07-24T12:35:19;10.60;;;6.30;;
59685;SDS011;45554;51.096;16.976;2023-07-24T12:37:49;11.20;;;7.00;;
59685;SDS011;45554;51.096;16.976;2023-07-24T12:40:17;10.10;;;6.30;;
59685;SDS011;45554;51.096;16.976;2023-07-24T12:42:45;10.40;;;6.30;;
59685;SDS011;45554;51.096;16.976;2023-07-24T12:45:13;11.10;;;6.40;;
59685;SDS011;45554;51.096;16.976;2023-07-24T12:50:09;10.20;;;6.20;;
59685;SDS011;45554;51.096;16.976;2023-07-24T12:52:38;9.10;;;6.20;;
59685;SDS011;45554;51.096;16.976;2023-07-24T12:55:06;12.20;;;6.80;;
59685;SDS011;45554;51.096;16.976;2023-07-24T12:57:35;9.80;;;6.50;;
59685;SDS011;45554;51.096;16.976;2023-07-24T13:02:32;11.10;;;7.50;;
59685;SDS011;45554;51.096;16.976;2023-07-24T13:05:02;13.10;;;6.90;;
59685;SDS011;45554;51.096;16.976;2023-07-24T13:07:30;10.50;;;6.80;;
59685;SDS011;45554;51.096;16.976;2023-07-24T13:09:58;10.90;;;6.40;;
59685;SDS011;45554;51.096;16.976;2023-07-24T13:12:26;10.20;;;7.00;;
59685;SDS011;45554;51.096;16.976;2023-07-24T13:14:54;12.30;;;6.00;;
59685;SDS011;45554;51.096;16.976;2023-07-24T13:17:22;10.40;;;6.30;;
59685;SDS011;45554;51.096;16.976;2023-07-24T13:19:50;11.70;;;6.50;;
59685;SDS011;45554;51.096;16.976;2023-07-24T13:22:18;13.50;;;6.80;;
59685;SDS011;45554;51.096;16.976;2023-07-24T13:24:46;9.90;;;6.10;;
59685;SDS011;45554;51.096;16.976;2023-07-24T13:27:18;13.30;;;6.00;;
59685;SDS011;45554;51.096;16.976;2023-07-24T13:29:48;13.10;;;6.20;;
59685;SDS011;45554;51.096;16.976;2023-07-24T13:32:17;11.00;;;6.30;;
59685;SDS011;45554;51.096;16.976;2023-07-24T13:34:45;10.30;;;6.40;;
59685;SDS011;45554;51.096;16.976;2023-07-24T13:37:15;11.50;;;6.30;;
59685;SDS011;45554;51.096;16.976;2023-07-24T13:39:44;12.40;;;6.10;;
59685;SDS011;45554;51.096;16.976;2023-07-24T13:42:12;11.20;;;5.90;;
59685;SDS011;45554;51.096;16.976;2023-07-24T13:44:40;9.70;;;5.60;;
59685;SDS011;45554;51.096;16.976;2023-07-24T13:47:09;10.20;;;6.10;;
59685;SDS011;45554;51.096;16.976;2023-07-24T13:49:37;12.40;;;6.70;;
59685;SDS011;45554;51.096;16.976;2023-07-24T13:52:06;9.90;;;5.90;;
59685;SDS011;45554;51.096;16.976;2023-07-24T13:54:37;10.90;;;6.30;;
59685;SDS011;45554;51.096;16.976;2023-07-24T13:57:05;10.90;;;6.20;;
59685;SDS011;45554;51.096;16.976;2023-07-24T13:59:36;11.70;;;6.10;;
59685;SDS011;45554;51.096;16.976;2023-07-24T14:02:08;12.80;;;6.30;;
59685;SDS011;45554;51.096;16.976;2023-07-24T14:04:37;11.80;;;6.50;;
59685;SDS011;45554;51.096;16.976;2023-07-24T14:07:05;11.60;;;5.60;;
59685;SDS011;45554;51.096;16.976;2023-07-24T14:09:34;9.00;;;5.30;;
59685;SDS011;45554;51.096;16.976;2023-07-24T14:12:02;10.30;;;6.60;;
59685;SDS011;45554;51.096;16.976;2023-07-24T14:14:31;10.30;;;6.50;;
59685;SDS011;45554;51.096;16.976;2023-07-24T14:19:27;11.50;;;6.30;;
59685;SDS011;45554;51.096;16.976;2023-07-24T14:21:56;10.00;;;6.30;;
59685;SDS011;45554;51.096;16.976;2023-07-24T14:24:24;10.10;;;6.30;;
59685;SDS011;45554;51.096;16.976;2023-07-24T14:26:52;10.00;;;5.70;;
59685;SDS011;45554;51.096;16.976;2023-07-24T14:29:21;9.40;;;6.20;;
59685;SDS011;45554;51.096;16.976;2023-07-24T14:31:48;13.00;;;6.30;;
59685;SDS011;45554;51.096;16.976;2023-07-24T14:34:17;9.90;;;6.10;;
59685;SDS011;45554;51.096;16.976;2023-07-24T14:36:45;9.80;;;5.90;;
59685;SDS011;45554;51.096;16.976;2023-07-24T14:39:13;10.90;;;6.10;;
59685;SDS011;45554;51.096;16.976;2023-07-24T14:41:41;13.00;;;6.40;;
59685;SDS011;45554;51.096;16.976;2023-07-24T14:44:10;10.80;;;5.60;;
59685;SDS011;45554;51.096;16.976;2023-07-24T14:46:38;11.80;;;6.90;;
59685;SDS011;45554;51.096;16.976;2023-07-24T14:49:06;10.60;;;6.30;;
59685;SDS011;45554;51.096;16.976;2023-07-24T14:51:34;9.90;;;6.10;;
59685;SDS011;45554;51.096;16.976;2023-07-24T14:54:02;11.40;;;5.90;;
59685;SDS011;45554;51.096;16.976;2023-07-24T14:59:19;11.50;;;6.90;;
59685;SDS011;45554;51.096;16.976;2023-07-24T15:04:15;12.70;;;6.40;;
59685;SDS011;45554;51.096;16.976;2023-07-24T15:06:43;10.40;;;5.70;;
59685;SDS011;45554;51.096;16.976;2023-07-24T15:11:39;11.50;;;6.70;;
59685;SDS011;45554;51.096;16.976;2023-07-24T15:14:07;10.80;;;6.40;;
59685;SDS011;45554;51.096;16.976;2023-07-24T15:16:36;10.30;;;6.20;;
59685;SDS011;45554;51.096;16.976;2023-07-24T15:19:04;12.30;;;6.40;;
59685;SDS011;45554;51.096;16.976;2023-07-24T15:21:32;10.60;;;6.70;;
59685;SDS011;45554;51.096;16.976;2023-07-24T15:24:00;10.70;;;6.70;;
59685;SDS011;45554;51.096;16.976;2023-07-24T15:26:29;11.90;;;6.60;;
59685;SDS011;45554;51.096;16.976;2023-07-24T15:28:57;10.00;;;6.20;;
59685;SDS011;45554;51.096;16.976;2023-07-24T15:31:25;10.30;;;6.10;;
59685;SDS011;45554;51.096;16.976;2023-07-24T15:33:53;14.80;;;7.10;;
59685;SDS011;45554;51.096;16.976;2023-07-24T15:36:21;10.60;;;6.60;;